createdAt,value
2019-02-17T00:06:13.331Z,213.70
2019-02-17T00:08:43.963Z,230.73
2019-02-17T00:13:43.383Z,218.47
2019-02-17T00:16:13.398Z,239.10
2019-02-17T00:18:43.415Z,232.90
2019-02-17T00:23:42.444Z,218.80
2019-02-17T00:26:12.438Z,237.40
2019-02-17T00:28:44.143Z,237.93
2019-02-17T00:31:13.928Z,226.47
2019-02-17T00:33:44.431Z,245.37
2019-02-17T00:36:14.470Z,233.37
2019-02-17T00:38:44.787Z,227.67
2019-02-17T00:43:44.425Z,232.40
2019-02-17T00:48:43.637Z,235.03
2019-02-17T00:51:13.645Z,215.23
2019-02-17T00:53:44.281Z,196.23
2019-02-17T00:56:14.813Z,182.83
2019-02-17T01:01:15.757Z,192.00
2019-02-17T01:03:46.811Z,176.13
2019-02-17T01:06:23.894Z,184.37
2019-02-17T01:08:57.786Z,177.07
2019-02-17T01:14:40.608Z,148.30
2019-02-17T01:17:11.651Z,151.10
2019-02-17T01:19:42.807Z,141.73
2019-02-17T01:22:12.807Z,166.80
2019-02-17T01:24:43.870Z,161.83
2019-02-17T01:27:13.793Z,159.77
2019-02-17T01:29:46.128Z,155.37
2019-02-17T01:32:16.572Z,144.30
2019-02-17T01:34:46.808Z,148.70
2019-02-17T01:37:17.731Z,140.60
2019-02-17T01:47:19.750Z,174.70
2019-02-17T01:49:48.631Z,209.93
2019-02-17T01:52:18.434Z,234.37
2019-02-17T01:57:17.548Z,200.93
2019-02-17T01:59:47.459Z,198.07
2019-02-17T02:02:44.824Z,186.27
2019-02-17T02:05:15.124Z,201.57
2019-02-17T02:07:46.306Z,246.23
2019-02-17T02:10:16.502Z,197.23
2019-02-17T02:12:46.728Z,222.20
2019-02-17T02:20:14.011Z,252.17
2019-02-17T02:22:44.253Z,200.83
2019-02-17T02:27:43.443Z,180.60
2019-02-17T02:30:13.788Z,176.47
2019-02-17T02:32:44.494Z,172.47
2019-02-17T02:37:43.507Z,193.17
2019-02-17T02:40:13.747Z,186.10
2019-02-17T02:42:44.070Z,180.10
2019-02-17T02:47:44.518Z,170.80
2019-02-17T02:52:44.223Z,173.43
2019-02-17T02:57:43.255Z,151.87
2019-02-17T03:02:46.113Z,147.73
2019-02-17T03:05:14.712Z,132.97
2019-02-17T03:07:44.847Z,145.50
2019-02-17T03:12:43.740Z,147.53
2019-02-17T03:17:43.144Z,141.13
2019-02-17T03:20:13.292Z,135.77
2019-02-17T03:22:43.294Z,134.77
2019-02-17T03:25:12.797Z,128.57
2019-02-17T03:27:42.819Z,132.43
2019-02-17T03:30:12.958Z,133.73
2019-02-17T03:32:43.286Z,126.50
2019-02-17T03:35:13.268Z,130.00
2019-02-17T03:37:43.396Z,134.17
2019-02-17T03:40:14.643Z,131.43
2019-02-17T03:42:44.869Z,131.20
2019-02-17T03:45:18.124Z,131.07
2019-02-17T03:47:49.005Z,131.73
2019-02-17T03:52:46.455Z,118.47
2019-02-17T03:57:45.261Z,117.73
2019-02-17T04:00:17.180Z,121.40
2019-02-17T04:02:47.042Z,136.57
2019-02-17T04:07:46.264Z,121.63
2019-02-17T04:10:16.485Z,137.73
2019-02-17T04:12:46.905Z,128.07
2019-02-17T04:15:17.034Z,124.93
2019-02-17T04:20:18.804Z,142.83
2019-02-17T04:22:48.824Z,128.70
2019-02-17T04:25:19.109Z,126.53
2019-02-17T04:27:49.450Z,145.00
2019-02-17T04:30:28.616Z,137.73
2019-02-17T04:32:50.194Z,130.67
2019-02-17T04:35:21.453Z,135.93
2019-02-17T04:40:21.896Z,146.20
2019-02-17T04:43:01.437Z,147.07
2019-02-17T04:45:31.756Z,142.00
2019-02-17T04:48:01.892Z,143.93
2019-02-17T04:50:31.795Z,152.70
2019-02-17T04:53:01.696Z,140.93
2019-02-17T04:55:31.828Z,150.87
2019-02-17T04:58:02.121Z,140.30
2019-02-17T05:00:39.714Z,127.67
2019-02-17T05:03:03.834Z,143.13
2019-02-17T05:05:34.243Z,134.50
2019-02-17T05:08:04.776Z,117.40
2019-02-17T05:10:34.804Z,113.90
2019-02-17T05:13:04.808Z,109.80
2019-02-17T05:15:35.251Z,102.40
2019-02-17T05:18:05.145Z,97.23
2019-02-17T05:20:35.049Z,95.53
2019-02-17T05:23:05.372Z,84.37
2019-02-17T05:25:35.818Z,100.93
2019-02-17T05:28:06.227Z,92.37
2019-02-17T05:30:36.447Z,91.27
2019-02-17T05:33:06.360Z,91.10
2019-02-17T05:35:36.488Z,82.37
2019-02-17T05:38:06.394Z,87.03
2019-02-17T05:40:36.679Z,94.70
2019-02-17T05:43:06.967Z,89.97
2019-02-17T05:45:36.873Z,93.20
2019-02-17T05:48:06.793Z,85.77
2019-02-17T05:50:36.796Z,88.60
2019-02-17T05:53:06.708Z,78.30
2019-02-17T05:55:37.040Z,87.87
2019-02-17T05:58:07.058Z,81.47
2019-02-17T06:00:38.799Z,89.10
2019-02-17T06:03:10.473Z,88.10
2019-02-17T06:05:40.893Z,94.17
2019-02-17T06:08:11.837Z,82.17
2019-02-17T06:10:42.456Z,83.67
2019-02-17T06:13:34.791Z,83.27
2019-02-17T06:19:11.292Z,86.87
2019-02-17T06:21:41.500Z,85.70
2019-02-17T06:24:11.963Z,83.60
2019-02-17T06:26:42.272Z,78.90
2019-02-17T06:29:12.386Z,78.23
2019-02-17T06:31:42.798Z,75.17
2019-02-17T06:34:13.437Z,77.63
2019-02-17T06:36:43.763Z,81.77
2019-02-17T06:39:13.878Z,71.87
2019-02-17T06:41:44.184Z,78.27
2019-02-17T06:44:14.326Z,76.57
2019-02-17T06:46:49.035Z,73.70
2019-02-17T06:49:19.455Z,73.47
2019-02-17T06:51:49.679Z,67.00
2019-02-17T06:54:19.913Z,79.53
2019-02-17T06:56:54.326Z,69.00
2019-02-17T06:59:24.663Z,68.20
2019-02-17T07:01:54.365Z,71.17
2019-02-17T07:04:39.346Z,65.37
2019-02-17T07:07:09.468Z,76.50
2019-02-17T07:09:39.453Z,66.87
2019-02-17T07:12:09.266Z,70.60
2019-02-17T07:14:39.387Z,71.13
2019-02-17T07:17:10.421Z,69.43
2019-02-17T07:19:40.440Z,70.50
2019-02-17T07:22:10.664Z,79.40
2019-02-17T07:24:40.472Z,103.63
2019-02-17T07:27:11.011Z,88.57
2019-02-17T07:29:40.819Z,89.03
2019-02-17T07:32:10.836Z,80.30
2019-02-17T07:34:40.852Z,71.10
2019-02-17T07:37:10.860Z,69.90
2019-02-17T07:39:41.099Z,76.50
2019-02-17T07:42:11.422Z,72.73
2019-02-17T07:44:41.847Z,72.70
2019-02-17T07:47:12.478Z,77.43
2019-02-17T07:49:42.498Z,69.37
2019-02-17T07:52:12.710Z,76.83
2019-02-17T07:54:42.921Z,74.70
2019-02-17T07:57:12.734Z,79.40
2019-02-17T07:59:42.440Z,75.17
2019-02-17T08:02:12.666Z,72.47
2019-02-17T08:04:42.490Z,68.47
2019-02-17T08:07:12.821Z,71.07
2019-02-17T08:09:42.938Z,71.23
2019-02-17T08:12:13.258Z,70.13
2019-02-17T08:14:43.378Z,71.17
2019-02-17T08:17:13.685Z,62.93
2019-02-17T08:19:43.708Z,63.33
2019-02-17T08:22:13.620Z,56.60
2019-02-17T08:24:43.432Z,61.80
2019-02-17T08:27:13.858Z,68.07
2019-02-17T08:29:44.074Z,69.47
2019-02-17T08:32:14.110Z,66.80
2019-02-17T08:34:44.546Z,75.60
2019-02-17T08:37:14.857Z,67.77
2019-02-17T08:39:44.878Z,65.97
2019-02-17T08:42:14.799Z,60.30
2019-02-17T08:44:45.107Z,60.37
2019-02-17T08:47:14.824Z,71.20
2019-02-17T08:49:45.847Z,58.73
2019-02-17T08:52:15.972Z,56.87
2019-02-17T08:54:46.087Z,58.60
2019-02-17T08:57:16.006Z,54.37
2019-02-17T08:59:46.322Z,55.17
2019-02-17T09:02:16.978Z,59.77
2019-02-17T09:04:47.298Z,58.67
2019-02-17T09:07:18.111Z,52.03
2019-02-17T09:09:48.438Z,61.33
2019-02-17T09:12:19.478Z,58.47
2019-02-17T09:14:49.709Z,55.20
2019-02-17T09:17:20.241Z,50.57
2019-02-17T09:19:51.887Z,52.00
2019-02-17T09:22:23.022Z,46.87
2019-02-17T09:24:53.980Z,49.87
2019-02-17T09:27:24.396Z,50.43
2019-02-17T09:29:55.341Z,52.73
2019-02-17T09:32:25.978Z,48.23
2019-02-17T09:34:59.452Z,57.17
2019-02-17T09:37:29.677Z,50.57
2019-02-17T09:39:59.799Z,52.07
2019-02-17T09:42:29.919Z,49.50
2019-02-17T09:45:00.205Z,55.47
2019-02-17T09:47:30.456Z,49.40
2019-02-17T09:50:00.781Z,50.53
2019-02-17T09:52:30.689Z,56.43
2019-02-17T09:55:01.737Z,46.13
2019-02-17T09:57:31.507Z,50.57
2019-02-17T10:00:01.472Z,43.07
2019-02-17T10:02:31.886Z,54.70
2019-02-17T10:05:01.707Z,45.23
2019-02-17T10:07:32.439Z,40.93
2019-02-17T10:10:02.778Z,51.60
2019-02-17T10:12:32.998Z,42.17
2019-02-17T10:15:03.299Z,39.07
2019-02-17T10:17:33.539Z,35.77
2019-02-17T10:20:03.757Z,41.03
2019-02-17T10:22:33.674Z,42.87
2019-02-17T10:25:03.479Z,36.77
2019-02-17T10:27:33.705Z,35.80
2019-02-17T10:30:03.918Z,29.53
2019-02-17T10:32:38.360Z,33.03
2019-02-17T10:35:06.407Z,30.53
2019-02-17T10:37:37.252Z,31.10
2019-02-17T10:40:08.408Z,31.23
2019-02-17T10:42:38.811Z,25.67
2019-02-17T10:45:13.337Z,36.57
2019-02-17T10:47:43.768Z,33.60
2019-02-17T10:50:14.297Z,35.97
2019-02-17T10:52:44.611Z,31.67
2019-02-17T10:55:16.167Z,31.83
2019-02-17T10:57:46.809Z,34.23
2019-02-17T11:00:17.344Z,30.17
2019-02-17T11:02:47.846Z,28.27
2019-02-17T11:05:18.808Z,33.83
2019-02-17T11:07:49.648Z,27.30
2019-02-17T11:10:19.970Z,27.17
2019-02-17T11:12:50.704Z,28.97
2019-02-17T11:15:21.616Z,26.83
2019-02-17T11:17:52.571Z,24.77
2019-02-17T11:20:23.304Z,23.87
2019-02-17T11:22:53.888Z,22.53
2019-02-17T11:25:24.857Z,23.70
2019-02-17T11:27:55.391Z,26.50
2019-02-17T11:30:25.808Z,24.53
2019-02-17T11:32:58.240Z,29.57
2019-02-17T11:35:29.878Z,32.70
2019-02-17T11:38:00.786Z,30.13
2019-02-17T11:40:30.692Z,28.43
2019-02-17T11:43:00.817Z,32.63
2019-02-17T11:45:31.352Z,35.13
2019-02-17T11:48:01.583Z,34.10
2019-02-17T11:50:31.890Z,31.93
2019-02-17T11:53:02.336Z,35.23
2019-02-17T11:55:32.841Z,34.57
2019-02-17T11:58:02.968Z,32.27
2019-02-17T12:00:33.384Z,35.60
2019-02-17T12:03:08.007Z,31.90
2019-02-17T12:05:35.664Z,41.23
2019-02-17T12:08:06.531Z,37.40
2019-02-17T12:10:36.928Z,32.27
2019-02-17T12:13:07.369Z,31.30
2019-02-17T12:15:38.008Z,34.80
2019-02-17T12:18:08.425Z,33.80
2019-02-17T12:20:57.491Z,32.63
2019-02-17T12:23:42.865Z,34.50
2019-02-17T12:26:17.489Z,41.80
2019-02-17T12:29:08.408Z,33.13
2019-02-17T12:31:39.736Z,32.83
2019-02-17T12:34:09.868Z,32.77
2019-02-17T12:36:40.104Z,27.63
2019-02-17T12:39:11.216Z,41.13
2019-02-17T12:41:41.850Z,33.17
2019-02-17T12:44:12.784Z,28.23
2019-02-17T12:46:42.697Z,27.67
2019-02-17T12:49:12.849Z,30.13
2019-02-17T12:51:43.369Z,29.83
2019-02-17T12:54:13.688Z,34.03
2019-02-17T12:56:44.008Z,27.70
2019-02-17T12:59:14.616Z,31.23
2019-02-17T13:01:45.484Z,28.13
2019-02-17T13:04:16.304Z,28.07
2019-02-17T13:06:46.616Z,25.73
2019-02-17T13:09:16.851Z,30.07
2019-02-17T13:11:48.552Z,27.63
2019-02-17T13:14:19.249Z,26.63
2019-02-17T13:16:49.655Z,34.10
2019-02-17T13:19:19.784Z,31.93
2019-02-17T13:21:49.915Z,31.90
2019-02-17T13:27:20.048Z,28.03
2019-02-17T13:29:50.051Z,28.33
2019-02-17T13:32:20.385Z,28.93
2019-02-17T13:34:50.812Z,23.40
2019-02-17T13:37:21.024Z,26.90
2019-02-17T13:39:51.336Z,25.87
2019-02-17T13:42:21.473Z,24.60
2019-02-17T13:44:51.905Z,26.47
2019-02-17T13:50:05.041Z,27.07
2019-02-17T13:52:39.769Z,21.77
2019-02-17T13:57:40.296Z,25.50
2019-02-17T14:00:12.875Z,25.80
2019-02-17T14:02:42.995Z,26.07
2019-02-17T14:05:15.458Z,26.30
2019-02-17T14:07:46.122Z,44.57
2019-02-17T14:10:16.545Z,31.40
2019-02-17T14:12:46.748Z,31.83
2019-02-17T14:15:17.289Z,23.93
2019-02-17T14:17:47.825Z,25.43
2019-02-17T14:20:18.865Z,27.33
2019-02-17T14:22:49.127Z,23.20
2019-02-17T14:25:18.971Z,22.97
2019-02-17T14:34:06.368Z,22.40
2019-02-17T14:36:37.408Z,25.53
2019-02-17T15:04:42.808Z,26.57
2019-02-17T15:07:12.391Z,27.50
2019-02-17T15:09:46.825Z,30.13
2019-02-17T15:20:00.827Z,33.00
2019-02-17T15:22:29.704Z,27.13
2019-02-17T15:29:55.463Z,24.80
2019-02-17T15:40:00.650Z,28.07
2019-02-17T15:42:28.408Z,29.63
2019-02-17T15:44:58.833Z,31.03
2019-02-17T15:49:56.824Z,38.60
2019-02-17T15:52:30.216Z,28.13
2019-02-17T15:54:59.624Z,32.43
2019-02-17T16:02:28.448Z,27.40
2019-02-17T16:04:57.128Z,38.73
2019-02-17T16:07:29.504Z,31.03
2019-02-17T16:10:00.947Z,38.30
2019-02-17T16:12:32.096Z,38.17
2019-02-17T16:15:04.050Z,54.40
2019-02-17T16:17:35.291Z,79.87
2019-02-17T16:20:05.129Z,96.37
2019-02-17T16:35:03.129Z,56.53
2019-02-17T16:40:24.089Z,55.60
2019-02-17T16:42:57.692Z,56.07
2019-02-17T16:45:30.464Z,53.07
2019-02-17T16:48:14.016Z,43.30
2019-02-17T16:54:01.865Z,46.07
2019-02-17T16:56:50.505Z,41.87
2019-02-17T16:59:39.667Z,51.57
2019-02-17T17:02:19.525Z,64.20
2019-02-17T17:08:12.473Z,83.07
2019-02-17T17:11:03.808Z,100.77
2019-02-17T17:13:37.505Z,95.43
2019-02-17T17:16:16.136Z,95.80
2019-02-17T17:18:49.328Z,94.83
2019-02-17T17:21:20.384Z,110.50
2019-02-17T17:28:50.208Z,158.53
2019-02-17T17:31:24.736Z,140.53
2019-02-17T17:33:57.905Z,157.57
2019-02-17T17:36:31.507Z,166.03
2019-02-17T17:39:04.984Z,179.97
2019-02-17T17:44:07.492Z,177.10
2019-02-17T17:49:06.091Z,232.60
2019-02-17T17:51:38.120Z,247.83
2019-02-17T17:54:19.931Z,257.00
2019-02-17T17:56:51.094Z,212.43
2019-02-17T17:59:20.282Z,195.70
2019-02-17T18:01:52.672Z,189.77
2019-02-17T18:04:28.128Z,251.87
2019-02-17T18:06:59.665Z,237.17
2019-02-17T18:09:28.112Z,247.30
2019-02-17T18:11:58.451Z,477.50
2019-02-17T18:14:27.769Z,263.33
2019-02-17T18:16:59.128Z,263.87
2019-02-17T18:19:31.129Z,240.27
2019-02-17T18:22:02.529Z,248.60
2019-02-17T18:24:32.531Z,264.97
2019-02-17T18:27:06.569Z,271.03
2019-02-17T18:29:37.371Z,396.20
2019-02-17T18:32:10.464Z,358.10
2019-02-17T18:34:40.808Z,273.40
2019-02-17T18:37:20.951Z,274.57
2019-02-17T18:40:00.288Z,229.23
2019-02-17T18:42:30.306Z,245.03
2019-02-17T18:45:02.666Z,230.33
2019-02-17T18:47:59.418Z,236.20
2019-02-17T18:50:30.458Z,209.37
2019-02-17T18:52:59.252Z,229.00
2019-02-17T18:55:28.545Z,220.77
2019-02-17T19:00:30.512Z,232.90
2019-02-17T19:03:10.784Z,225.40
2019-02-17T19:08:32.424Z,216.73
2019-02-17T19:11:05.704Z,264.90
2019-02-17T19:13:36.551Z,235.03
2019-02-17T19:16:18.552Z,221.90
2019-02-17T19:19:08.712Z,244.33
2019-02-17T19:21:41.911Z,261.20
2019-02-17T19:24:17.108Z,292.70
2019-02-17T19:26:55.497Z,270.43
2019-02-17T19:29:27.744Z,236.40
2019-02-17T19:32:05.545Z,220.70
2019-02-17T19:34:40.072Z,220.83
2019-02-17T19:37:11.728Z,243.93
2019-02-17T19:39:47.370Z,211.90
2019-02-17T19:42:18.491Z,215.50
2019-02-17T19:44:54.986Z,204.00
2019-02-17T19:47:40.267Z,177.70
2019-02-17T19:50:16.507Z,177.60
2019-02-17T19:52:48.088Z,182.33
2019-02-17T19:55:29.768Z,209.33
2019-02-17T20:05:35.493Z,219.43
2019-02-17T20:08:11.824Z,251.80
2019-02-17T20:10:42.865Z,209.47
2019-02-17T20:13:14.094Z,221.87
2019-02-17T20:15:44.536Z,228.60
2019-02-17T20:18:14.475Z,239.33
2019-02-17T20:20:44.664Z,288.07
2019-02-17T20:23:16.153Z,267.73
2019-02-17T20:25:49.818Z,286.77
2019-02-17T20:28:40.707Z,260.33
2019-02-17T20:30:57.386Z,250.63
2019-02-17T20:38:40.280Z,275.53
2019-02-17T20:41:12.832Z,276.07
2019-02-17T20:43:46.120Z,295.60
2019-02-17T20:46:20.129Z,278.23
2019-02-17T20:49:01.665Z,255.87
2019-02-17T20:51:32.785Z,294.40
2019-02-17T20:54:05.472Z,275.30
2019-02-17T20:56:36.491Z,256.40
2019-02-17T20:59:09.801Z,260.80
2019-02-17T21:01:41.248Z,252.90
2019-02-17T21:04:11.787Z,224.63
2019-02-17T21:06:43.848Z,245.27
2019-02-17T21:09:16.920Z,218.50
2019-02-17T21:11:47.129Z,229.60
2019-02-17T21:14:17.775Z,237.37
2019-02-17T21:16:48.824Z,214.43
2019-02-17T21:19:21.104Z,234.20
2019-02-17T21:21:53.368Z,224.57
2019-02-17T21:24:32.888Z,230.87
2019-02-17T21:27:01.784Z,228.33
2019-02-17T21:29:33.857Z,227.93
2019-02-17T21:32:06.828Z,219.30
2019-02-17T21:34:46.373Z,229.47
2019-02-17T21:37:18.644Z,220.07
2019-02-17T21:39:57.100Z,200.67
2019-02-17T21:45:34.906Z,224.40
2019-02-17T21:48:10.320Z,213.07
2019-02-17T21:50:56.424Z,217.47
2019-02-17T21:56:48.260Z,197.67
2019-02-17T22:09:06.109Z,208.07
2019-02-17T22:17:39.791Z,233.37
2019-02-17T22:25:59.919Z,198.27
2019-02-17T22:28:32.498Z,172.00
2019-02-17T22:31:03.428Z,160.63
2019-02-17T22:44:18.879Z,145.87
2019-02-17T22:46:50.851Z,146.80
2019-02-17T22:49:28.447Z,142.57
2019-02-17T22:52:07.879Z,144.90
2019-02-17T22:54:42.387Z,139.43
2019-02-17T23:07:16.371Z,129.87
2019-02-17T23:09:48.218Z,142.80
2019-02-17T23:12:23.052Z,152.33
2019-02-17T23:14:57.383Z,187.17
2019-02-17T23:17:38.340Z,156.90
2019-02-17T23:22:59.771Z,171.50
2019-02-17T23:25:29.994Z,202.50
2019-02-17T23:28:01.976Z,221.17
2019-02-17T23:30:34.840Z,215.47
2019-02-17T23:33:18.495Z,198.97
2019-02-17T23:35:53.020Z,204.33
2019-02-17T23:46:12.005Z,182.80
2019-02-17T23:48:43.375Z,197.40
2019-02-17T23:51:14.815Z,198.30
2019-02-17T23:53:44.953Z,198.50
2019-02-17T23:56:15.114Z,191.83
2019-02-17T23:58:46.831Z,202.17
